CheckWX is a tool to help pilots better visualize weather data.  It is not intended as a substitute for an official pre-flight weather briefing.

08:08:23 UTC

KAFW METAR
Fort Worth Alliance Airport
Fort Worth, Texas, USA
Current

15 mins ago

KAFW 210753Z 20004KT 10SM SCT300 05/M02 A3046 RMK AO2 SLP319 T00501022
Observed
Jan-21 @ 07:53 UTC
Wind
  • 200° at 4 KTS
Visibility
10 SM
Flight Rules
VFR
Cloud Levels
  • Scattered at 30,000' AGL
Temperature
C / 41°F
Dewpoint
-2°C / 28°F
Humidity
61%
Altimeter
30.46" Hg
Pressure
1031.52 hPa
Previous

1 hour ago

KAFW 210653Z 17003KT 10SM SCT300 07/M03 A3048 RMK AO2 SLP324 T00671028
Observed
Jan-21 @ 06:53 UTC
Wind
  • 170° at 3 KTS
Visibility
10 SM
Flight Rules
VFR
Cloud Levels
  • Scattered at 30,000' AGL
Temperature
C / 45°F
Dewpoint
-3°C / 27°F
Humidity
49%
Altimeter
30.48" Hg
Pressure
1032.22 hPa
Previous

2 hours ago

KAFW 210553Z 00000KT 10SM CLR 07/M03 A3048 RMK AO2 SLP324 T00671028 10122 20056 401390011 50003
Observed
Jan-21 @ 05:53 UTC
Visibility
10 SM
Flight Rules
VFR
Cloud Levels
  • Clear skies
Temperature
C / 45°F
Dewpoint
-3°C / 27°F
Humidity
49%
Altimeter
30.48" Hg
Pressure
1032.22 hPa